METAR AND TAF INFORMATION
METAR FOR LEIB
ADDS - METARS form results

(2113 UTC 03 August 2021)
Data provider http://aviationweather.gov/metar/data/
 
METAR text: LEIB 032100Z 00000KT CAVOK 24/20 Q1015 NOSIG
Conditions at: LEIB (IBIZA/ES CODOLA , ES) observed 2100 UTC 03 August 2021
Temperature: 24.0°C (75°F)
Dewpoint: 20.0°C (68°F) [RH = 78%]
Pressure (altimeter): 29.97 inches Hg (1015.0 mb)
Winds: calm
Visibility: 6 or more miles (10+ km)
Ceiling: ceiling and visibility are OK
Clouds: unknown
Weather: no significant weather observed at this time

METAR text: LEIB 032030Z 00000KT CAVOK 24/20 Q1014 NOSIG
Conditions at: LEIB (IBIZA/ES CODOLA , ES) observed 2030 UTC 03 August 2021
Temperature: 24.0°C (75°F)
Dewpoint: 20.0°C (68°F) [RH = 78%]
Pressure (altimeter): 29.94 inches Hg (1014.0 mb)
Winds: calm
Visibility: 6 or more miles (10+ km)
Ceiling: ceiling and visibility are OK
Clouds: unknown
Weather: no significant weather observed at this time

Forecast for: LEIB (IBIZA/ES CODOLA , ES)
Text: TAF LEIB 032000Z 0321/0421 VRB03KT 9999 FEW020 TX28/0412Z TN22/0405Z
Forecast period: 2100 UTC 03 August 2021 to 0700 UTC 04 August 2021
Forecast type: FROM: standard forecast or significant change
Winds: variable direction winds at 3 MPH (3 knots; 1.5 m/s)
Visibility: 6 or more miles (10+ km)
Ceiling: at least 12,000 feet AGL
Clouds: few clouds at 2000 feet AGL
Weather: no significant weather forecast for this period
Text: BECMG 0407/0409 20010KT
Forecast period: 0700 to 1800 UTC 04 August 2021
Forecast type: BECOMING: Conditions expected to become as follows by 0900 UTC 04 August 2021
Winds: from the SSW (200 degrees) at 12 MPH (10 knots; 5.1 m/s)
Visibility: 6 or more miles (10+ km)
Ceiling: at least 12,000 feet AGL
Clouds: few clouds at 2000 feet AGL
Weather: no significant weather forecast for this period
Text: BECMG 0418/0420 VRB03KT
Forecast period: 1800 to 2100 UTC 04 August 2021
Forecast type: BECOMING: Conditions expected to become as follows by 2000 UTC 04 August 2021
Winds: variable direction winds at 3 MPH (3 knots; 1.5 m/s)
Visibility: 6 or more miles (10+ km)
Ceiling: at least 12,000 feet AGL
Clouds: few clouds at 2000 feet AGL
Weather: no significant weather forecast for this period

 AIRPORT MAP

 RUNWAY INFORMATION
Runway 06 Runway length 9186 ft Runway width 148 ft
Runway elevation 13 ft Runway displaced threshold 0 ft Runway heading 62
Runway 24 Runway length 9186 ft Runway width 148 ft
Runway elevation 16 ft Runway displaced threshold 0 ft Runway heading 242

 AIRPORT FREQUENCIES
Type APP Name PALMA APP Frequency 118.125 MHZ
Type APP Name APP Frequency 119.8 MHZ
Type ATIS Name ATIS Frequency 117.8 MHZ
Type GND Name GND Frequency 121.8 MHZ
Type TWR Name TWR Frequency 118.5 MHZ

 AIRPORT NEAR NAVIGATION AIDS
Type VOR-DME Name Ibiza Frequency 117800 KHZ
Type NDB Name Ibiza Frequency 394 KHZ





Powered by Virtual Airlines Manager

Maps by Rafael Santos